地図

経路データ

SID SEASON NUMBER BASIN SUBBASIN NAME ISO_TIME NATURE LAT LON WMO_WIND WMO_PRES WMO_AGENCY TRACK_TYPE DIST2LAND LANDFALL IFLAG USA_AGENCY USA_ATCF_ID USA_LAT USA_LON USA_RECORD USA_STATUS USA_WIND USA_PRES USA_SSHS USA_R34_NE USA_R34_SE USA_R34_SW USA_R34_NW USA_R50_NE USA_R50_SE USA_R50_SW USA_R50_NW USA_R64_NE USA_R64_SE USA_R64_SW USA_R64_NW USA_POCI USA_ROCI USA_RMW USA_EYE TOKYO_LAT TOKYO_LON TOKYO_GRADE TOKYO_WIND TOKYO_PRES TOKYO_R50_DIR TOKYO_R50_LONG TOKYO_R50_SHORT TOKYO_R30_DIR TOKYO_R30_LONG TOKYO_R30_SHORT TOKYO_LAND CMA_LAT CMA_LON CMA_CAT CMA_WIND CMA_PRES HKO_LAT HKO_LON HKO_CAT HKO_WIND HKO_PRES NEWDELHI_LAT NEWDELHI_LON NEWDELHI_GRADE NEWDELHI_WIND NEWDELHI_PRES NEWDELHI_CI NEWDELHI_DP NEWDELHI_POCI REUNION_LAT REUNION_LON REUNION_TYPE REUNION_WIND REUNION_PRES REUNION_TNUM REUNION_CI REUNION_RMW REUNION_R34_NE REUNION_R34_SE REUNION_R34_SW REUNION_R34_NW REUNION_R50_NE REUNION_R50_SE REUNION_R50_SW REUNION_R50_NW REUNION_R64_NE REUNION_R64_SE REUNION_R64_SW REUNION_R64_NW BOM_LAT BOM_LON BOM_TYPE BOM_WIND BOM_PRES BOM_TNUM BOM_CI BOM_RMW BOM_R34_NE BOM_R34_SE BOM_R34_SW BOM_R34_NW BOM_R50_NE BOM_R50_SE BOM_R50_SW BOM_R50_NW BOM_R64_NE BOM_R64_SE BOM_R64_SW BOM_R64_NW BOM_ROCI BOM_POCI BOM_EYE BOM_POS_METHOD BOM_PRES_METHOD NADI_LAT NADI_LON NADI_CAT NADI_WIND NADI_PRES WELLINGTON_LAT WELLINGTON_LON WELLINGTON_WIND WELLINGTON_PRES DS824_LAT DS824_LON DS824_STAGE DS824_WIND DS824_PRES TD9636_LAT TD9636_LON TD9636_STAGE TD9636_WIND TD9636_PRES TD9635_LAT TD9635_LON TD9635_WIND TD9635_PRES TD9635_ROCI NEUMANN_LAT NEUMANN_LON NEUMANN_CLASS NEUMANN_WIND NEUMANN_PRES MLC_LAT MLC_LON MLC_CLASS MLC_WIND MLC_PRES USA_GUST BOM_GUST BOM_GUST_PER REUNION_GUST REUNION_GUST_PER USA_SEAHGT USA_SEARAD_NE USA_SEARAD_SE USA_SEARAD_SW USA_SEARAD_NW STORM_SPEED STORM_DIR
1917352S12123 1918 54 SI WA NOT_NAMED 1917-12-17 12:00:00 NR -12.0000 123.100 main 184 166 __________O___ -1 -12.0000 123.100 7 4 332
1917352S12123 1918 54 SI WA NOT_NAMED 1917-12-17 15:00:00 NR -11.8403 123.013 main 166 166 __________P___ -1 -12.1501 123.000 7 3 318
1917352S12123 1918 54 SI WA NOT_NAMED 1917-12-17 18:00:00 NR -11.8045 122.921 main 169 169 __________P___ -1 -12.3001 122.900 7 3 227
1917352S12123 1918 54 SI WA NOT_NAMED 1917-12-17 21:00:00 NR -12.0163 122.818 main 194 194 __________P___ -1 -12.4501 122.800 7 8 195
1917352S12123 1918 54 SI WA NOT_NAMED 1917-12-18 00:00:00 NR -12.6000 122.700 main 261 261 __________O___ -1 -12.6000 122.700 7 13 193
1917352S12123 1918 54 SI WA NOT_NAMED 1917-12-18 01:00:00 NR -12.8573 122.624 bom main 296 296 ______O_______ -1 -12.7000 122.500 7 16 198
1917352S12123 1918 54 SI WA NOT_NAMED 1917-12-18 03:00:00 NR -13.3471 122.457 main 325 300 ______P_______ -1 -12.9332 122.320 7 14 203
1917352S12123 1918 54 SI WA NOT_NAMED 1917-12-18 06:00:00 NR -13.9455 122.153 main 300 278 ______P_______ -1 -13.2920 122.055 7 11 216
1917352S12123 1918 54 SI WA NOT_NAMED 1917-12-18 09:00:00 NR -14.1974 121.817 main 283 283 ______P_______ -1 -13.6741 121.803 7 6 255
1917352S12123 1918 54 SI WA NOT_NAMED 1917-12-18 12:00:00 NR -14.0939 121.571 main 302 275 ______P_______ -1 -14.0939 121.571 6 230
1917352S12123 1918 54 SI WA NOT_NAMED 1917-12-18 15:00:00 NR -14.5657 121.368 main 266 239 ______P_______ -1 -14.5657 121.368 11 200
1917352S12123 1918 54 SI WA NOT_NAMED 1917-12-18 18:00:00 NR -15.1040 121.201 main 239 200 ______P_______ -1 -15.1040 121.201 12 194
1917352S12123 1918 54 SI WA NOT_NAMED 1917-12-18 21:00:00 NR -15.7233 121.079 main 200 159 ______P_______ -1 -15.7233 121.079 14 188
1917352S12123 1918 54 SI WA NOT_NAMED 1917-12-19 00:00:00 NR -16.4380 121.010 main 159 144 ______P_______ -1 -16.4380 121.010 15 184
1917352S12123 1918 54 SI WA NOT_NAMED 1917-12-19 01:00:00 NR -16.7000 121.000 bom main 144 125 ______O_______ -1 -16.7000 121.000 16 182
1917352S12123 1918 54 SI WA NOT_NAMED 1917-12-19 03:00:00 NR -17.2552 121.001 main 121 99 ______P_______ -1 -17.2552 121.001 17 178
1917352S12123 1918 54 SI WA NOT_NAMED 1917-12-19 06:00:00 NR -18.0927 121.052 main 84 53 ______P_______ -1 -18.0927 121.052 16 175
1917352S12123 1918 54 SI WA NOT_NAMED 1917-12-19 09:00:00 NR -18.8112 121.155 main 46 30 ______P_______ -1 -18.8112 121.155 14 171
1917352S12123 1918 54 SI WA NOT_NAMED 1917-12-19 10:00:00 NR -19.0000 121.200 bom main 30 0 ______O_______ -1 -19.0000 121.200 10 164
1917352S12123 1918 54 SI WA NOT_NAMED 1917-12-19 12:00:00 NR -19.3000 121.300 bom main 0 0 ______O_______ -1 -19.3000 121.300 11 157
1917352S12123 1918 54 SI WA NOT_NAMED 1917-12-19 15:00:00 NR -19.8321 121.569 main 0 0 ______P_______ -1 -19.8321 121.569 14 152
1917352S12123 1918 54 SI WA NOT_NAMED 1917-12-19 18:00:00 NR -20.4905 121.968 main 0 0 ______P_______ -1 -20.4905 121.968 16 149
1917352S12123 1918 54 SI WA NOT_NAMED 1917-12-19 21:00:00 NR -21.2364 122.461 main 0 0 ______P_______ -1 -21.2364 122.461 18 148
1917352S12123 1918 54 SI WA NOT_NAMED 1917-12-20 00:00:00 NR -22.0310 123.011 main 0 0 ______P_______ -1 -22.0310 123.011 19 147
1917352S12123 1918 54 SI WA NOT_NAMED 1917-12-20 01:00:00 NR -22.3000 123.200 bom main 0 ______O_______ -1 -22.3000 123.200 19 147

IBTrACS Databaseについて

本データベースは、米国NOAAが公開する1842年以降の世界の熱帯低気圧のベストトラックデータアーカイブInternational Best Track Archive for Climate Stewardship (IBTrACS)を、ウェブで閲覧しやすい形式に変換したものです。

最終更新日:2021-11-26